Date,TemperatureHighF,TemperatureAvgF,TemperatureLowF,DewpointHighF,DewpointAvgF,DewpointLowF,HumidityHigh,HumidityAvg,HumidityLow,PressureMaxIn,PressureMinIn,WindSpeedMaxMPH,WindSpeedAvgMPH,GustSpeedMaxMPH,PrecipitationSumIn
2013-4-14,-200,0,200,-100,-100,-100,0,0,100,0.00,40.00,0,-999,0,0.00
2013-4-19,75,63,54,66,56,-100,99,85,69,29.71,29.57,8,-38,0,0.00
2013-4-20,63,51,42,53,36,24,99,62,29,30.30,29.68,6,1,0,0.00
2013-4-21,63,47,32,31,25,21,63,44,25,30.58,30.30,5,0,0,0.00
2013-4-22,62,46,31,38,33,29,93,63,36,30.59,30.42,5,1,0,0.00
2013-4-23,53,47,41,44,39,33,90,74,60,30.42,30.10,3,0,0,0.00
2013-4-24,81,58,36,57,48,35,99,72,41,30.10,29.76,5,0,0,0.00
2013-4-25,72,55,42,57,33,25,83,47,21,30.25,29.87,8,1,0,0.00
2013-4-26,75,52,35,40,34,28,94,58,22,30.40,30.25,6,0,0,0.00
2013-4-27,81,57,34,40,35,32,93,53,21,30.42,30.24,2,0,0,0.00
2013-4-28,81,59,40,46,38,29,91,51,24,30.28,30.15,5,0,0,0.00
2013-4-29,57,54,51,56,52,43,99,94,67,30.18,30.09,3,0,0,0.00
2013-4-30,79,62,50,57,47,30,99,65,30,30.29,30.13,3,0,0,0.00
2013-5-1,80,60,36,43,38,32,97,51,19,30.43,30.29,3,0,0,0.00
2013-5-2,83,61,38,49,42,37,99,58,27,30.43,30.29,3,0,0,0.00
2013-5-3,77,59,46,44,40,34,85,54,26,30.40,30.30,5,0,0,0.00
2013-5-4,82,58,39,49,42,38,99,61,25,30.33,30.16,3,0,0,0.00
2013-5-5,79,56,40,45,41,37,94,61,29,30.25,30.14,5,0,0,0.00
2013-5-6,80,58,42,55,49,39,95,75,40,30.21,30.08,2,0,0,0.00
2013-5-7,82,62,52,66,57,51,99,85,50,30.11,30.00,3,0,0,0.00
2013-5-8,79,63,56,68,60,56,99,92,67,30.01,29.88,2,0,0,0.00
2013-5-9,78,63,55,62,58,55,99,85,51,29.94,29.86,3,0,0,0.00
2013-5-10,91,69,50,65,57,50,99,72,33,29.98,29.85,2,0,0,0.00
2013-5-11,77,65,60,70,64,59,99,97,78,29.88,29.67,2,0,0,0.00
2013-5-12,71,59,43,59,43,26,99,62,24,29.95,29.66,8,1,0,0.00
2013-5-13,61,48,36,37,32,24,98,59,29,30.10,29.95,6,1,0,0.00
2013-5-14,70,51,31,40,32,26,99,58,24,30.14,29.99,5,0,0,0.00
2013-5-15,82,62,47,60,51,38,97,67,42,30.04,29.66,5,0,0,0.00
2013-5-16,89,68,53,70,60,53,99,80,43,29.84,29.68,2,0,0,0.00
2013-5-17,82,64,47,56,48,41,99,61,29,30.16,29.85,3,0,0,0.00
2013-5-18,72,61,55,57,54,48,99,78,55,30.25,30.17,3,0,0,0.00
2013-5-19,65,59,56,64,59,56,99,99,96,30.24,30.11,3,0,0,0.00
2013-5-20,82,69,57,72,65,57,99,89,69,30.13,29.95,0,0,0,0.00
2013-5-21,96,77,60,75,69,59,99,79,49,29.96,29.82,3,0,0,0.00
2013-5-22,99,78,66,78,71,65,99,82,46,29.89,29.78,5,0,0,0.00
2013-5-23,84,73,65,76,70,65,99,93,65,29.85,29.72,3,0,0,0.00
2013-5-24,65,54,45,64,52,40,99,92,73,30.00,29.68,8,1,0,0.00
2013-5-25,65,53,44,44,39,34,98,62,37,30.03,29.95,11,2,0,0.00
2013-5-26,77,59,45,43,38,34,84,50,25,30.19,30.00,8,1,0,0.00
2013-5-27,82,60,38,48,43,38,99,60,26,30.25,30.11,2,0,0,0.00
2013-5-28,65,59,50,65,57,48,99,96,78,30.19,30.07,0,0,0,0.00
2013-5-29,96,76,59,77,66,58,99,76,40,30.09,29.99,2,0,0,0.00
2013-5-30,101,82,63,74,68,63,99,68,34,30.12,30.04,3,0,0,0.00
2013-5-31,106,83,64,75,67,59,99,66,28,30.11,29.98,3,0,0,0.00
2013-6-1,102,83,65,74,70,64,99,69,37,30.01,29.87,2,0,0,0.00
2013-6-2,96,81,71,76,71,67,94,73,45,29.90,29.76,2,0,0,0.00
2013-6-3,88,73,65,76,68,61,99,86,59,29.87,29.77,5,0,0,0.00
2013-6-4,82,68,54,60,50,46,90,57,31,30.09,29.89,8,0,0,0.00
2013-6-5,90,69,47,54,50,47,99,60,26,30.17,30.04,0,0,0,0.00
2013-6-6,82,65,54,62,57,51,99,77,39,30.10,29.93,2,0,0,0.00
2013-6-7,60,60,60,60,60,60,99,99,99,29.84,29.59,0,0,0,0.00
2013-6-8,78,69,59,70,64,59,99,86,69,30.05,29.91,0,0,0,0.00
2013-6-9,90,72,54,67,62,54,99,76,41,30.15,30.05,0,0,0,0.00
2013-6-10,71,69,65,70,68,64,99,97,88,30.12,29.74,0,0,0,0.00
2013-6-11,84,73,63,73,68,63,99,84,64,29.76,29.64,2,0,0,0.00
2013-6-12,90,74,62,67,63,60,99,71,39,29.82,29.74,2,0,0,0.00
2013-6-13,83,69,60,76,66,59,99,89,75,29.81,29.35,3,0,0,0.00
2013-6-14,80,64,54,62,57,54,99,81,48,29.90,29.49,8,1,0,0.00
2013-6-15,87,69,53,66,58,52,99,73,40,30.01,29.90,3,0,0,0.00
2013-6-16,89,71,56,70,64,56,99,81,42,29.98,29.78,2,0,0,0.00
2013-6-17,95,78,63,74,69,62,99,75,46,29.91,29.81,2,0,0,0.00
2013-6-18,82,68,63,75,67,62,99,98,79,29.89,29.77,0,0,0,0.00
2013-6-19,83,69,56,64,58,53,99,72,38,30.13,29.85,3,0,0,0.00
2013-6-20,91,71,54,65,58,52,99,69,38,30.24,30.14,2,0,0,0.00
2013-6-21,95,72,54,64,58,53,99,65,33,30.28,30.20,2,0,0,0.00
2013-6-22,94,74,56,71,64,55,99,74,44,30.24,30.08,3,0,0,0.00
2013-6-23,97,78,62,76,71,62,99,80,49,30.17,30.03,3,0,0,0.00
2013-6-24,102,80,68,79,72,68,99,82,43,30.07,29.95,2,0,0,0.00
2013-6-25,100,78,64,80,71,64,99,81,43,30.00,29.82,3,0,0,0.00
2013-6-26,96,77,67,77,71,67,99,85,51,29.85,29.74,3,0,0,0.00
2013-6-27,97,78,69,80,73,69,99,88,52,29.80,29.52,2,0,0,0.00
2013-6-28,92,76,68,82,72,68,99,89,60,29.54,29.44,3,0,0,0.00
2013-6-29,94,78,64,76,69,64,99,78,46,29.66,29.45,2,0,0,0.00
2013-6-30,89,76,68,80,74,68,99,95,73,29.85,29.67,0,0,0,0.00
2013-7-1,79,74,69,79,74,69,99,99,97,29.99,29.83,2,0,0,0.00
2013-7-2,89,77,72,82,76,71,99,96,75,30.15,29.99,2,0,0,0.00
2013-7-3,92,78,70,82,76,70,99,93,71,30.21,30.14,2,0,0,0.00
2013-7-4,98,82,72,82,77,72,99,85,59,30.23,30.14,2,0,0,0.00
2013-7-5,100,84,72,82,76,72,99,81,46,30.20,30.08,2,0,0,0.00
2013-7-6,103,84,72,83,77,71,99,82,45,30.13,30.01,3,0,0,0.00
2013-7-7,102,83,70,82,76,70,99,82,51,30.06,29.94,3,0,0,0.00
2013-7-8,95,76,67,81,72,67,99,89,55,30.06,29.98,2,0,0,0.00
2013-7-9,95,78,68,81,74,67,99,90,63,30.06,29.98,0,0,0,0.00
2013-7-10,95,81,72,81,77,72,99,88,61,29.99,29.80,5,0,0,0.00
2013-7-11,92,78,72,77,74,65,99,87,59,29.90,29.78,2,0,0,0.00
2013-7-12,77,72,68,74,68,64,99,89,77,30.02,29.89,5,0,0,0.00
2013-7-13,96,77,68,83,75,68,99,94,65,30.28,30.02,2,0,0,0.00
2013-7-14,99,81,71,85,76,70,99,86,54,30.33,30.23,2,0,0,0.00
2013-7-15,103,84,69,83,76,69,99,81,48,30.26,30.13,3,0,0,0.00
2013-7-16,101,84,71,78,75,70,99,78,46,30.21,30.12,3,0,0,0.00
2013-7-17,105,86,70,79,75,70,99,75,40,30.18,30.05,2,0,0,0.00
2013-7-18,109,89,72,85,79,72,99,77,45,30.07,29.95,2,0,0,0.00
2013-7-19,105,90,77,87,81,76,99,80,49,29.98,29.80,3,0,0,0.00
2013-7-20,100,85,74,82,77,73,98,79,53,29.83,29.73,5,0,0,0.00
2013-7-21,98,82,72,80,75,71,99,83,51,29.93,29.82,2,0,0,0.00
2013-7-22,90,77,71,84,75,71,99,94,72,29.92,29.74,3,0,0,0.00
2013-7-23,94,76,70,85,74,69,99,95,68,29.74,29.56,5,0,0,0.00
2013-7-24,81,73,65,74,68,57,99,84,62,29.92,29.61,5,0,0,0.00
2013-7-25,80,66,58,67,61,56,98,82,62,30.02,29.90,5,0,0,0.00
2013-7-26,94,73,60,69,64,59,99,76,40,30.03,29.98,3,0,0,0.00
2013-7-27,97,76,59,77,67,58,99,79,48,30.03,29.89,2,0,0,0.00
2013-7-28,87,74,67,80,72,66,99,94,79,29.95,29.86,0,0,0,0.00
2013-7-29,93,73,64,70,65,59,99,81,36,30.11,29.93,5,0,0,0.00
2013-7-30,91,72,56,67,62,55,99,75,42,30.18,30.10,5,0,0,0.00
2013-7-31,93,73,56,71,65,56,99,79,41,30.14,30.00,0,0,0,0.00
2013-8-1,75,70,66,74,69,66,99,97,91,30.00,29.79,2,0,0,0.00
2013-8-2,92,76,66,78,69,66,99,82,47,29.91,29.79,3,0,0,0.00
2013-8-3,76,69,63,73,68,63,99,97,88,29.91,29.85,2,0,0,0.00
2013-8-4,85,71,59,68,62,58,99,78,46,29.97,29.84,5,0,0,0.00
2013-8-5,86,68,53,62,58,52,99,76,36,30.06,29.97,2,0,0,0.00
2013-8-6,88,68,54,70,62,54,99,84,47,30.09,30.01,2,0,0,0.00
2013-8-7,78,72,66,74,70,66,99,96,81,30.09,30.01,3,0,0,0.00
2013-8-8,94,78,68,86,75,68,99,92,69,30.02,29.94,3,0,0,0.00
2013-8-9,87,78,74,85,77,73,99,97,82,29.97,29.79,5,0,0,0.00
2013-8-10,93,76,66,75,71,66,99,86,50,30.02,29.86,3,0,0,0.00
2013-8-11,95,76,59,72,67,58,99,77,44,30.10,29.98,2,0,0,0.00
2013-8-12,96,77,68,76,71,68,99,85,46,30.01,29.89,2,0,0,0.00
2013-8-13,88,73,65,78,72,64,99,95,69,29.89,29.68,3,0,0,0.00
2013-8-14,79,66,55,69,58,53,99,77,50,30.04,29.75,10,1,0,0.00
2013-8-15,89,65,49,63,56,48,99,77,35,30.13,30.04,3,0,0,0.00
2013-8-16,95,69,50,68,58,50,99,74,31,30.17,30.10,2,0,0,0.00
2013-8-17,96,71,54,68,61,53,99,75,33,30.24,30.18,2,0,0,0.00
2013-8-18,80,68,63,69,65,62,99,90,60,30.23,30.11,2,0,0,0.00
2013-8-19,83,69,60,74,66,59,99,91,68,30.12,30.03,3,0,0,0.00
2013-8-20,101,76,60,77,68,60,99,80,41,30.12,30.03,2,0,0,0.00
2013-8-21,101,79,60,76,70,60,99,78,38,30.16,30.03,2,0,0,0.00
2013-8-22,89,76,70,81,75,70,99,97,74,30.04,29.86,2,0,0,0.00
2013-8-23,78,70,62,71,67,62,99,92,74,30.07,29.88,2,0,0,0.00
2013-8-24,94,71,56,64,59,53,99,73,29,30.32,30.08,3,0,0,0.00
2013-8-25,95,69,50,69,59,50,99,76,35,30.39,30.22,2,0,0,0.00
2013-8-26,95,75,60,73,67,59,99,80,46,30.23,29.90,5,0,0,0.00
2013-8-27,98,78,67,75,72,66,99,83,44,29.91,29.83,3,0,0,0.00
2013-8-28,74,70,67,74,70,67,99,99,99,29.87,29.80,2,0,0,0.00
2013-8-29,92,74,69,81,72,69,99,94,66,30.00,29.84,2,0,0,0.00
2013-8-30,88,75,66,79,73,66,99,94,75,30.00,29.84,5,0,0,0.00
2013-8-31,96,79,69,83,76,69,99,91,67,29.86,29.76,2,0,0,0.00
2013-9-1,98,78,70,84,75,70,99,93,57,29.81,29.67,0,0,0,0.00
2013-9-2,91,76,70,81,75,70,99,95,73,29.70,29.60,2,0,0,0.00
2013-9-3,90,74,62,76,67,61,99,82,45,29.83,29.62,6,1,0,0.00
2013-9-4,91,70,56,67,62,55,99,79,41,29.95,29.82,3,0,0,0.00
2013-9-5,85,67,54,69,59,50,99,79,40,30.06,29.87,10,0,0,0.00
2013-9-6,86,63,48,54,50,47,99,70,28,30.17,30.05,2,0,0,0.00
2013-9-7,93,65,44,63,54,43,99,76,31,30.05,29.82,3,0,0,0.00
2013-9-8,88,71,58,72,63,50,99,79,50,29.99,29.76,5,0,0,0.00
2013-9-9,86,65,45,67,58,45,99,82,47,30.14,29.99,3,0,0,0.00
2013-9-10,98,79,67,81,74,67,99,88,58,30.08,29.97,3,0,0,0.00
2013-9-11,104,83,70,86,77,70,99,84,52,30.04,29.90,5,0,0,0.00
2013-9-12,97,78,68,83,74,68,99,91,62,29.90,29.62,5,0,0,0.00
2013-9-13,84,68,56,69,63,53,99,85,49,29.81,29.56,6,0,0,0.00
2013-9-14,66,56,45,54,51,45,99,85,63,30.07,29.81,6,1,0,0.00
2013-9-15,83,59,40,60,51,40,99,80,39,30.15,30.00,6,0,0,0.00
2013-9-16,79,61,53,68,58,53,99,90,57,30.16,29.95,5,0,0,0.00
2013-9-17,80,57,41,53,47,41,99,75,31,30.34,30.16,3,0,0,0.00
2013-9-18,86,56,38,56,47,38,99,78,29,30.27,30.10,3,0,0,0.00
2013-9-19,91,61,41,62,52,41,99,79,34,30.11,29.98,2,0,0,0.00
2013-9-20,94,66,47,68,58,47,99,80,38,30.00,29.88,3,0,0,0.00
2013-9-21,91,68,50,70,62,50,99,83,44,29.90,29.58,3,0,0,0.00
2013-9-22,75,61,49,62,55,48,99,82,48,29.84,29.57,6,1,0,0.00
2013-9-23,74,56,43,51,47,43,99,75,43,29.97,29.84,8,1,0,0.00
2013-9-24,82,56,38,56,48,38,99,80,38,30.00,29.81,5,0,0,0.00
2013-9-25,83,57,40,55,49,40,99,80,37,29.88,29.77,5,0,0,0.00
2013-9-26,84,60,44,63,55,44,99,85,45,29.99,29.84,2,0,0,0.00
2013-9-27,83,62,52,63,56,52,99,84,41,30.17,29.99,2,0,0,0.00
2013-9-28,86,64,51,61,55,50,99,79,34,30.22,30.13,2,0,0,0.00
2013-9-29,88,60,43,62,54,43,99,83,41,30.15,29.98,0,0,0,0.00
2013-9-30,85,59,43,62,53,43,99,83,40,30.00,29.88,3,0,0,0.00
2013-10-1,91,63,47,70,58,47,99,85,46,29.95,29.83,3,0,0,0.00
2013-10-2,92,68,50,70,61,50,99,83,44,29.93,29.85,5,0,0,0.00
2013-10-3,90,69,53,69,63,53,99,84,45,30.03,29.93,0,0,0,0.00
2013-10-4,95,72,58,75,67,58,99,86,51,29.98,29.88,3,0,0,0.00
2013-10-5,98,75,61,76,69,61,99,85,46,29.99,29.91,2,0,0,0.00
2013-10-6,88,71,65,76,69,65,99,95,67,30.03,29.88,2,0,0,0.00
2013-10-7,76,65,52,76,64,52,99,99,99,29.91,29.65,3,0,0,0.00
2013-10-8,70,54,43,57,50,43,99,88,55,30.22,29.92,6,0,0,0.00
2013-10-9,64,54,46,55,51,45,99,89,72,30.28,30.15,3,0,0,0.00
2013-10-10,58,55,51,58,55,51,99,98,92,30.15,29.91,5,1,0,0.00
2013-10-11,62,60,57,62,59,56,99,99,99,29.95,29.86,5,0,0,0.00
2013-10-12,73,63,56,64,58,48,99,83,54,30.12,29.93,3,0,0,0.00
2013-10-13,76,61,49,60,56,49,99,84,50,30.27,30.12,3,0,0,0.00
2013-10-14,81,56,41,59,51,41,99,87,44,30.26,30.13,2,0,0,0.00
2013-10-15,84,57,42,63,51,41,99,82,38,30.15,30.00,2,0,0,0.00
2013-10-16,69,58,48,65,57,48,99,98,86,30.01,29.81,0,0,0,0.00
2013-10-17,82,65,56,71,64,56,99,95,68,29.82,29.61,2,0,0,0.00
2013-10-18,71,56,42,64,50,42,99,82,48,29.91,29.64,6,1,0,0.00
2013-10-19,68,51,38,57,48,38,99,90,62,29.91,29.67,6,0,0,0.00
2013-10-20,69,51,39,52,44,39,99,82,40,30.00,29.70,5,0,0,0.00
2013-10-21,79,50,34,50,42,34,99,79,32,30.08,29.90,3,0,0,0.00
2013-10-22,66,50,37,58,48,37,99,94,74,29.89,29.70,5,0,0,0.00
2013-10-23,58,45,36,46,40,36,99,85,60,29.72,29.51,3,0,0,0.00
2013-10-24,58,40,30,40,34,30,99,82,43,29.95,29.69,5,0,0,0.00
2013-10-25,60,40,28,41,35,28,99,84,44,30.15,29.95,5,0,0,0.00
2013-10-26,66,41,26,38,33,26,99,78,36,30.15,29.80,6,0,0,0.00
2013-10-27,64,45,33,41,36,33,99,73,40,30.03,29.78,3,0,0,0.00
2013-10-28,69,42,28,45,36,28,99,83,39,30.19,30.03,2,0,0,0.00
2013-10-29,70,45,31,46,39,31,99,85,39,30.29,30.19,2,0,0,0.00
2013-10-30,60,50,38,57,49,38,99,98,88,30.24,30.07,2,0,0,0.00
2013-10-31,67,58,45,67,57,45,99,99,94,30.10,29.66,3,0,0,0.00
2013-11-1,70,61,49,66,60,49,99,97,77,29.66,29.44,6,1,0,0.00
2013-11-2,65,51,43,56,49,42,99,94,64,29.70,29.51,2,0,0,0.00
2013-11-3,56,42,30,45,35,24,99,78,39,30.37,29.70,5,1,0,0.00
2013-11-4,54,35,24,29,25,22,99,71,31,30.55,30.37,5,0,0,0.00
2013-11-5,64,45,29,48,40,29,99,86,54,30.54,30.38,5,0,0,0.00
2013-11-6,72,54,46,56,51,46,99,89,55,30.38,29.96,3,0,0,0.00
2013-11-7,60,52,41,59,51,40,99,99,90,29.96,29.73,10,0,0,0.00
2013-11-8,51,41,31,40,33,30,99,75,51,30.20,29.92,8,1,0,0.00
2013-11-9,58,38,25,36,32,25,99,81,40,30.26,29.93,3,0,0,0.00
2013-11-10,57,43,28,43,34,28,99,73,47,30.06,29.81,6,1,0,0.00
2013-11-11,55,46,32,41,35,29,95,68,52,30.19,29.91,5,0,0,0.00
2013-11-12,49,36,22,41,27,18,92,71,48,30.28,29.88,10,1,0,0.00
2013-11-13,39,29,22,23,20,16,92,70,47,30.35,30.25,10,1,0,0.00
2013-11-14,53,35,24,25,22,18,93,65,25,30.24,30.13,5,0,0,0.00
2013-11-15,58,38,26,40,32,25,99,80,37,30.20,30.10,0,0,0,0.00
2013-11-16,58,47,38,51,46,36,99,95,78,30.27,30.18,0,0,0,0.00
2013-11-17,67,57,49,62,56,49,99,96,83,30.18,29.69,2,0,0,0.00
2013-11-18,62,56,46,61,45,30,99,71,40,29.79,29.56,6,1,0,0.00
2013-11-19,46,41,29,33,29,24,83,63,53,30.30,29.79,8,1,0,0.00
2013-11-20,44,32,25,27,21,15,96,68,34,30.52,30.30,2,0,0,0.00
2013-11-21,52,38,22,44,33,20,97,83,67,30.54,30.33,2,0,0,0.00
2013-11-22,56,50,46,54,50,44,99,97,89,30.33,29.89,3,0,0,0.00
2013-11-23,51,39,27,51,31,16,99,73,52,30.03,29.90,8,1,0,0.00
2013-11-24,28,24,21,15,6,4,61,47,36,30.37,30.03,10,2,0,0.00
2013-11-25,36,25,16,21,15,9,88,67,47,30.46,30.27,3,0,0,0.00
2013-11-26,47,34,30,47,30,21,99,85,64,30.28,29.58,3,0,0,0.00
2013-11-27,59,41,29,59,40,25,99,97,83,29.78,29.34,11,1,0,0.00
2013-11-28,34,28,25,25,22,21,93,78,63,30.41,29.79,6,1,0,0.00
2013-11-29,39,28,20,27,23,20,99,85,62,30.67,30.40,5,0,0,0.00
2013-11-30,38,28,15,31,24,14,99,88,73,30.68,30.30,2,0,0,0.00
2013-12-1,46,35,24,36,32,24,99,89,68,30.30,29.95,2,0,0,0.00
2013-12-2,50,40,34,40,36,34,99,89,68,29.95,29.80,0,0,0,0.00
2013-12-3,50,40,30,45,37,30,99,92,68,29.94,29.81,2,0,0,0.00
2013-12-4,54,43,29,48,41,29,99,92,76,30.04,29.94,0,0,0,0.00
2013-12-5,56,52,47,56,52,47,99,99,99,30.03,29.86,0,0,0,0.00
2013-12-6,59,46,36,59,46,35,99,99,99,30.10,29.79,3,0,0,0.00
2013-12-7,38,34,28,36,32,26,99,96,82,30.45,30.02,6,0,0,0.00
2013-12-8,28,26,24,28,25,22,99,94,80,30.53,30.27,0,0,0,0.00
2013-12-9,36,33,28,36,32,28,99,99,99,30.25,29.93,0,0,0,0.00
2013-12-10,34,29,18,34,29,17,99,99,99,30.11,29.87,0,0,0,0.00
2013-12-11,29,20,11,26,19,11,99,96,82,30.30,30.11,2,0,0,0.00
2013-12-12,24,17,12,20,15,11,99,90,67,30.32,30.11,3,0,0,0.00
2013-12-13,33,23,11,24,19,10,99,84,67,30.27,30.09,3,0,0,0.00
2013-12-14,30,27,24,29,26,24,99,97,89,30.35,29.63,2,0,0,0.00
2013-12-15,38,31,26,37,30,25,99,96,86,29.81,29.48,3,0,0,0.00
2013-12-16,29,23,15,27,18,14,99,81,61,30.16,29.79,8,0,0,0.00
2013-12-17,31,24,18,30,23,18,99,96,82,30.14,29.87,2,0,0,0.00
2013-12-18,36,24,13,28,21,12,99,91,73,30.14,29.89,6,0,0,0.00
2013-12-19,46,29,15,35,26,15,99,91,66,30.13,29.97,0,0,0,0.00
2013-12-20,51,38,28,39,34,27,99,90,63,30.02,29.90,0,0,0,0.00
2013-12-21,59,46,33,58,45,33,99,98,89,29.93,29.82,0,0,0,0.00
2013-12-22,66,61,56,66,61,56,99,99,99,29.89,29.73,6,0,0,0.00
2013-12-23,58,52,38,57,51,37,99,99,94,30.11,29.85,6,0,0,0.00
2013-12-24,38,32,24,37,26,17,99,81,69,30.34,30.07,5,0,0,0.00
2013-12-25,28,23,17,18,15,11,83,71,59,30.48,30.34,3,0,0,0.00
2013-12-26,36,27,21,33,25,19,99,94,76,30.34,30.11,2,0,0,0.00
2013-12-27,43,27,17,29,23,16,99,87,52,30.32,30.21,2,0,0,0.00
2013-12-28,53,35,20,35,28,20,99,80,46,30.23,30.02,3,0,0,0.00
2013-12-29,41,38,33,41,37,32,99,97,80,30.02,29.38,2,0,0,0.00
2013-12-30,42,35,23,40,32,19,99,89,77,30.11,29.68,5,0,0,0.00
2013-12-31,35,26,20,31,21,16,92,79,65,30.25,29.99,3,0,0,0.00
2014-1-1,38,28,18,28,23,16,97,81,66,30.34,30.13,0,0,0,0.00
2014-1-2,30,26,16,28,25,16,99,94,84,30.11,29.58,2,0,0,0.00